sensor_id;sensor_type;location;lat;lon;timestamp;P1;durP1;ratioP1;P2;durP2;ratioP2
75435;SDS011;64014;53.432;14.534;2023-05-10T00:00:59;9.85;;;3.63;;
75435;SDS011;64014;53.432;14.534;2023-05-10T00:03:26;6.07;;;3.35;;
75435;SDS011;64014;53.432;14.534;2023-05-10T00:05:52;8.90;;;5.05;;
75435;SDS011;64014;53.432;14.534;2023-05-10T00:08:18;7.63;;;4.10;;
75435;SDS011;64014;53.432;14.534;2023-05-10T00:10:44;7.70;;;5.22;;
75435;SDS011;64014;53.432;14.534;2023-05-10T00:13:10;7.70;;;4.88;;
75435;SDS011;64014;53.432;14.534;2023-05-10T00:15:37;7.35;;;3.65;;
75435;SDS011;64014;53.432;14.534;2023-05-10T00:18:03;10.02;;;4.18;;
75435;SDS011;64014;53.432;14.534;2023-05-10T00:20:29;6.10;;;4.20;;
75435;SDS011;64014;53.432;14.534;2023-05-10T00:22:55;8.85;;;3.33;;
75435;SDS011;64014;53.432;14.534;2023-05-10T00:25:21;7.88;;;4.05;;
75435;SDS011;64014;53.432;14.534;2023-05-10T00:27:48;4.30;;;3.28;;
75435;SDS011;64014;53.432;14.534;2023-05-10T00:30:14;5.43;;;3.63;;
75435;SDS011;64014;53.432;14.534;2023-05-10T00:32:40;5.68;;;3.55;;
75435;SDS011;64014;53.432;14.534;2023-05-10T00:35:08;7.72;;;4.40;;
75435;SDS011;64014;53.432;14.534;2023-05-10T00:37:34;8.25;;;4.07;;
75435;SDS011;64014;53.432;14.534;2023-05-10T00:40:00;5.30;;;3.85;;
75435;SDS011;64014;53.432;14.534;2023-05-10T00:42:27;6.20;;;4.10;;
75435;SDS011;64014;53.432;14.534;2023-05-10T00:44:53;7.93;;;4.15;;
75435;SDS011;64014;53.432;14.534;2023-05-10T00:47:19;7.68;;;4.32;;
75435;SDS011;64014;53.432;14.534;2023-05-10T00:49:45;7.13;;;3.83;;
75435;SDS011;64014;53.432;14.534;2023-05-10T00:52:11;6.68;;;4.93;;
75435;SDS011;64014;53.432;14.534;2023-05-10T00:54:38;6.90;;;4.25;;
75435;SDS011;64014;53.432;14.534;2023-05-10T00:57:04;9.02;;;4.03;;
75435;SDS011;64014;53.432;14.534;2023-05-10T00:59:30;7.75;;;5.30;;
75435;SDS011;64014;53.432;14.534;2023-05-10T01:01:57;6.28;;;4.60;;
75435;SDS011;64014;53.432;14.534;2023-05-10T01:04:23;6.10;;;2.88;;
75435;SDS011;64014;53.432;14.534;2023-05-10T01:06:51;7.18;;;4.15;;
75435;SDS011;64014;53.432;14.534;2023-05-10T01:09:18;7.03;;;4.00;;
75435;SDS011;64014;53.432;14.534;2023-05-10T01:11:44;7.10;;;4.35;;
75435;SDS011;64014;53.432;14.534;2023-05-10T01:14:10;6.00;;;4.05;;
75435;SDS011;64014;53.432;14.534;2023-05-10T01:16:37;7.70;;;4.80;;
75435;SDS011;64014;53.432;14.534;2023-05-10T01:19:04;9.15;;;5.07;;
75435;SDS011;64014;53.432;14.534;2023-05-10T01:21:34;8.93;;;4.43;;
75435;SDS011;64014;53.432;14.534;2023-05-10T01:27:01;8.55;;;4.75;;
75435;SDS011;64014;53.432;14.534;2023-05-10T01:32:16;7.50;;;4.55;;
75435;SDS011;64014;53.432;14.534;2023-05-10T01:37:15;8.38;;;3.03;;
75435;SDS011;64014;53.432;14.534;2023-05-10T01:39:44;5.97;;;4.80;;
75435;SDS011;64014;53.432;14.534;2023-05-10T01:49:57;10.13;;;5.15;;
75435;SDS011;64014;53.432;14.534;2023-05-10T01:52:30;6.30;;;4.50;;
75435;SDS011;64014;53.432;14.534;2023-05-10T01:55:01;7.95;;;5.38;;
75435;SDS011;64014;53.432;14.534;2023-05-10T01:57:32;5.50;;;4.28;;
75435;SDS011;64014;53.432;14.534;2023-05-10T01:59:59;7.40;;;4.05;;
75435;SDS011;64014;53.432;14.534;2023-05-10T02:02:27;9.52;;;4.72;;
75435;SDS011;64014;53.432;14.534;2023-05-10T02:04:55;6.57;;;4.45;;
75435;SDS011;64014;53.432;14.534;2023-05-10T02:07:23;7.60;;;4.50;;
75435;SDS011;64014;53.432;14.534;2023-05-10T02:09:49;6.05;;;2.88;;
75435;SDS011;64014;53.432;14.534;2023-05-10T02:12:15;7.15;;;4.18;;
75435;SDS011;64014;53.432;14.534;2023-05-10T02:14:42;5.82;;;4.00;;
75435;SDS011;64014;53.432;14.534;2023-05-10T02:17:09;9.13;;;4.63;;
75435;SDS011;64014;53.432;14.534;2023-05-10T02:19:39;7.40;;;5.07;;
75435;SDS011;64014;53.432;14.534;2023-05-10T02:22:06;7.50;;;4.47;;
75435;SDS011;64014;53.432;14.534;2023-05-10T02:24:33;8.07;;;4.30;;
75435;SDS011;64014;53.432;14.534;2023-05-10T02:27:00;8.82;;;4.65;;
75435;SDS011;64014;53.432;14.534;2023-05-10T02:29:27;9.77;;;5.22;;
75435;SDS011;64014;53.432;14.534;2023-05-10T02:31:54;7.57;;;4.85;;
75435;SDS011;64014;53.432;14.534;2023-05-10T02:34:25;8.32;;;6.03;;
75435;SDS011;64014;53.432;14.534;2023-05-10T02:36:52;8.55;;;4.63;;
75435;SDS011;64014;53.432;14.534;2023-05-10T02:39:21;8.70;;;5.47;;
75435;SDS011;64014;53.432;14.534;2023-05-10T02:41:48;5.05;;;2.80;;
75435;SDS011;64014;53.432;14.534;2023-05-10T02:44:15;9.18;;;5.18;;
75435;SDS011;64014;53.432;14.534;2023-05-10T02:46:41;7.78;;;4.18;;
75435;SDS011;64014;53.432;14.534;2023-05-10T02:49:08;8.15;;;4.43;;
75435;SDS011;64014;53.432;14.534;2023-05-10T02:51:35;6.97;;;4.45;;
75435;SDS011;64014;53.432;14.534;2023-05-10T02:54:04;7.03;;;4.60;;
75435;SDS011;64014;53.432;14.534;2023-05-10T02:56:33;13.63;;;5.13;;
75435;SDS011;64014;53.432;14.534;2023-05-10T02:59:00;10.52;;;5.05;;
75435;SDS011;64014;53.432;14.534;2023-05-10T03:01:26;7.55;;;5.30;;
75435;SDS011;64014;53.432;14.534;2023-05-10T03:03:53;8.55;;;5.82;;
75435;SDS011;64014;53.432;14.534;2023-05-10T03:06:19;7.25;;;4.82;;
75435;SDS011;64014;53.432;14.534;2023-05-10T03:08:45;8.00;;;5.25;;
75435;SDS011;64014;53.432;14.534;2023-05-10T03:11:28;7.13;;;5.32;;
75435;SDS011;64014;53.432;14.534;2023-05-10T03:14:13;6.72;;;4.78;;
75435;SDS011;64014;53.432;14.534;2023-05-10T03:16:44;8.68;;;4.30;;
75435;SDS011;64014;53.432;14.534;2023-05-10T03:19:15;9.23;;;5.55;;
75435;SDS011;64014;53.432;14.534;2023-05-10T03:21:43;7.45;;;4.68;;
75435;SDS011;64014;53.432;14.534;2023-05-10T03:26:37;12.25;;;5.03;;
75435;SDS011;64014;53.432;14.534;2023-05-10T03:29:04;9.77;;;4.88;;
75435;SDS011;64014;53.432;14.534;2023-05-10T03:31:31;9.68;;;4.72;;
75435;SDS011;64014;53.432;14.534;2023-05-10T03:33:58;6.32;;;4.65;;
75435;SDS011;64014;53.432;14.534;2023-05-10T03:36:24;7.40;;;4.82;;
75435;SDS011;64014;53.432;14.534;2023-05-10T03:38:50;7.38;;;5.80;;
75435;SDS011;64014;53.432;14.534;2023-05-10T03:41:16;7.60;;;5.22;;
75435;SDS011;64014;53.432;14.534;2023-05-10T03:43:42;12.45;;;6.43;;
75435;SDS011;64014;53.432;14.534;2023-05-10T03:46:08;10.15;;;5.68;;
75435;SDS011;64014;53.432;14.534;2023-05-10T03:48:35;7.85;;;4.75;;
75435;SDS011;64014;53.432;14.534;2023-05-10T03:51:01;7.40;;;3.83;;
75435;SDS011;64014;53.432;14.534;2023-05-10T03:53:27;7.70;;;4.38;;
75435;SDS011;64014;53.432;14.534;2023-05-10T03:55:54;7.57;;;4.65;;
75435;SDS011;64014;53.432;14.534;2023-05-10T03:58:20;7.00;;;3.30;;
75435;SDS011;64014;53.432;14.534;2023-05-10T04:00:46;7.13;;;4.95;;
75435;SDS011;64014;53.432;14.534;2023-05-10T04:03:13;8.70;;;5.80;;
75435;SDS011;64014;53.432;14.534;2023-05-10T04:05:39;7.50;;;5.63;;
75435;SDS011;64014;53.432;14.534;2023-05-10T04:08:05;6.95;;;4.32;;
75435;SDS011;64014;53.432;14.534;2023-05-10T04:10:32;8.35;;;5.72;;
75435;SDS011;64014;53.432;14.534;2023-05-10T04:12:58;8.50;;;4.95;;
75435;SDS011;64014;53.432;14.534;2023-05-10T04:15:24;7.50;;;5.45;;
75435;SDS011;64014;53.432;14.534;2023-05-10T04:17:50;7.65;;;5.72;;
75435;SDS011;64014;53.432;14.534;2023-05-10T04:20:16;6.72;;;5.28;;
75435;SDS011;64014;53.432;14.534;2023-05-10T04:22:43;8.30;;;5.28;;
75435;SDS011;64014;53.432;14.534;2023-05-10T04:25:09;11.15;;;5.47;;
75435;SDS011;64014;53.432;14.534;2023-05-10T04:27:35;6.82;;;4.28;;
75435;SDS011;64014;53.432;14.534;2023-05-10T04:30:02;8.10;;;5.10;;
75435;SDS011;64014;53.432;14.534;2023-05-10T04:32:29;9.95;;;6.57;;
75435;SDS011;64014;53.432;14.534;2023-05-10T04:34:56;8.52;;;5.75;;
75435;SDS011;64014;53.432;14.534;2023-05-10T04:37:22;11.90;;;6.10;;
75435;SDS011;64014;53.432;14.534;2023-05-10T04:39:49;10.75;;;5.45;;
75435;SDS011;64014;53.432;14.534;2023-05-10T04:42:15;10.82;;;4.13;;
75435;SDS011;64014;53.432;14.534;2023-05-10T04:44:41;9.30;;;5.05;;
75435;SDS011;64014;53.432;14.534;2023-05-10T04:47:07;9.18;;;5.18;;
75435;SDS011;64014;53.432;14.534;2023-05-10T04:49:33;8.38;;;5.60;;
75435;SDS011;64014;53.432;14.534;2023-05-10T04:52:00;8.30;;;5.28;;
75435;SDS011;64014;53.432;14.534;2023-05-10T04:54:26;7.57;;;5.05;;
75435;SDS011;64014;53.432;14.534;2023-05-10T04:56:52;7.85;;;5.07;;
75435;SDS011;64014;53.432;14.534;2023-05-10T04:59:18;11.65;;;5.10;;
75435;SDS011;64014;53.432;14.534;2023-05-10T05:01:44;9.98;;;5.28;;
75435;SDS011;64014;53.432;14.534;2023-05-10T05:04:10;9.35;;;4.70;;
75435;SDS011;64014;53.432;14.534;2023-05-10T05:06:36;6.55;;;3.80;;
75435;SDS011;64014;53.432;14.534;2023-05-10T05:09:03;7.97;;;4.57;;
75435;SDS011;64014;53.432;14.534;2023-05-10T05:11:29;7.57;;;4.60;;
75435;SDS011;64014;53.432;14.534;2023-05-10T05:13:55;12.18;;;5.50;;
75435;SDS011;64014;53.432;14.534;2023-05-10T05:16:23;10.63;;;5.32;;
75435;SDS011;64014;53.432;14.534;2023-05-10T05:18:50;10.90;;;6.78;;
75435;SDS011;64014;53.432;14.534;2023-05-10T05:21:17;10.40;;;5.80;;
75435;SDS011;64014;53.432;14.534;2023-05-10T05:23:43;10.10;;;5.47;;
75435;SDS011;64014;53.432;14.534;2023-05-10T05:26:09;8.05;;;5.22;;
75435;SDS011;64014;53.432;14.534;2023-05-10T05:28:35;7.93;;;5.63;;
75435;SDS011;64014;53.432;14.534;2023-05-10T05:31:03;8.85;;;5.13;;
75435;SDS011;64014;53.432;14.534;2023-05-10T05:33:29;11.25;;;5.65;;
75435;SDS011;64014;53.432;14.534;2023-05-10T05:35:55;11.43;;;4.95;;
75435;SDS011;64014;53.432;14.534;2023-05-10T05:38:21;9.15;;;5.60;;
75435;SDS011;64014;53.432;14.534;2023-05-10T05:40:48;8.55;;;5.93;;
75435;SDS011;64014;53.432;14.534;2023-05-10T05:43:15;11.18;;;5.72;;
75435;SDS011;64014;53.432;14.534;2023-05-10T05:45:41;9.90;;;5.70;;
75435;SDS011;64014;53.432;14.534;2023-05-10T05:48:07;8.98;;;4.65;;
75435;SDS011;64014;53.432;14.534;2023-05-10T05:50:33;9.05;;;6.35;;
75435;SDS011;64014;53.432;14.534;2023-05-10T05:52:59;14.70;;;6.20;;
75435;SDS011;64014;53.432;14.534;2023-05-10T05:55:25;7.95;;;5.32;;
75435;SDS011;64014;53.432;14.534;2023-05-10T05:57:52;7.88;;;4.10;;
75435;SDS011;64014;53.432;14.534;2023-05-10T06:00:18;13.50;;;6.60;;
75435;SDS011;64014;53.432;14.534;2023-05-10T06:02:46;8.05;;;6.35;;
75435;SDS011;64014;53.432;14.534;2023-05-10T06:05:13;9.93;;;6.40;;
75435;SDS011;64014;53.432;14.534;2023-05-10T06:07:40;8.18;;;4.22;;
75435;SDS011;64014;53.432;14.534;2023-05-10T06:10:07;11.13;;;5.60;;
75435;SDS011;64014;53.432;14.534;2023-05-10T06:12:34;9.75;;;3.78;;
75435;SDS011;64014;53.432;14.534;2023-05-10T06:15:00;9.98;;;6.10;;
75435;SDS011;64014;53.432;14.534;2023-05-10T06:17:26;13.45;;;5.28;;
75435;SDS011;64014;53.432;14.534;2023-05-10T06:19:52;18.38;;;4.35;;
75435;SDS011;64014;53.432;14.534;2023-05-10T06:22:18;9.32;;;5.15;;
75435;SDS011;64014;53.432;14.534;2023-05-10T06:24:45;6.88;;;4.95;;
75435;SDS011;64014;53.432;14.534;2023-05-10T06:27:11;8.63;;;5.25;;
75435;SDS011;64014;53.432;14.534;2023-05-10T06:29:37;10.98;;;5.70;;
75435;SDS011;64014;53.432;14.534;2023-05-10T06:32:03;8.90;;;4.95;;
75435;SDS011;64014;53.432;14.534;2023-05-10T06:34:29;7.22;;;4.53;;
75435;SDS011;64014;53.432;14.534;2023-05-10T06:36:56;15.70;;;3.78;;
75435;SDS011;64014;53.432;14.534;2023-05-10T06:39:22;8.60;;;4.00;;
75435;SDS011;64014;53.432;14.534;2023-05-10T06:41:48;10.63;;;3.97;;
75435;SDS011;64014;53.432;14.534;2023-05-10T06:44:15;9.25;;;4.97;;
75435;SDS011;64014;53.432;14.534;2023-05-10T06:46:41;8.13;;;4.18;;
75435;SDS011;64014;53.432;14.534;2023-05-10T06:49:07;11.30;;;3.25;;
75435;SDS011;64014;53.432;14.534;2023-05-10T06:51:34;15.43;;;5.72;;
75435;SDS011;64014;53.432;14.534;2023-05-10T06:54:00;28.88;;;13.60;;
75435;SDS011;64014;53.432;14.534;2023-05-10T06:56:26;13.25;;;7.00;;
75435;SDS011;64014;53.432;14.534;2023-05-10T06:58:52;11.35;;;3.63;;
75435;SDS011;64014;53.432;14.534;2023-05-10T07:01:19;11.07;;;3.33;;
75435;SDS011;64014;53.432;14.534;2023-05-10T07:03:45;11.55;;;3.47;;
75435;SDS011;64014;53.432;14.534;2023-05-10T07:06:11;12.32;;;2.72;;
75435;SDS011;64014;53.432;14.534;2023-05-10T07:08:37;9.35;;;3.20;;
75435;SDS011;64014;53.432;14.534;2023-05-10T07:11:05;10.25;;;2.95;;
75435;SDS011;64014;53.432;14.534;2023-05-10T07:13:35;7.93;;;4.60;;
75435;SDS011;64014;53.432;14.534;2023-05-10T07:16:03;6.97;;;3.83;;
75435;SDS011;64014;53.432;14.534;2023-05-10T07:18:31;10.45;;;3.17;;
75435;SDS011;64014;53.432;14.534;2023-05-10T07:20:57;6.70;;;2.22;;
75435;SDS011;64014;53.432;14.534;2023-05-10T07:23:23;10.80;;;4.80;;
75435;SDS011;64014;53.432;14.534;2023-05-10T07:25:50;6.50;;;2.42;;
75435;SDS011;64014;53.432;14.534;2023-05-10T07:28:19;8.00;;;4.68;;
75435;SDS011;64014;53.432;14.534;2023-05-10T07:30:45;10.82;;;3.63;;
75435;SDS011;64014;53.432;14.534;2023-05-10T07:33:12;8.98;;;3.85;;
75435;SDS011;64014;53.432;14.534;2023-05-10T07:35:38;8.95;;;3.92;;
75435;SDS011;64014;53.432;14.534;2023-05-10T07:38:04;11.68;;;2.30;;
75435;SDS011;64014;53.432;14.534;2023-05-10T07:40:31;7.75;;;2.15;;
75435;SDS011;64014;53.432;14.534;2023-05-10T07:42:57;10.73;;;2.20;;
75435;SDS011;64014;53.432;14.534;2023-05-10T07:45:24;7.18;;;2.50;;
75435;SDS011;64014;53.432;14.534;2023-05-10T07:47:51;6.40;;;2.40;;
75435;SDS011;64014;53.432;14.534;2023-05-10T07:50:17;7.10;;;2.10;;
75435;SDS011;64014;53.432;14.534;2023-05-10T07:52:43;5.88;;;2.13;;
75435;SDS011;64014;53.432;14.534;2023-05-10T07:55:09;6.38;;;2.40;;
75435;SDS011;64014;53.432;14.534;2023-05-10T07:57:35;9.88;;;3.63;;
75435;SDS011;64014;53.432;14.534;2023-05-10T08:00:02;10.43;;;4.72;;
75435;SDS011;64014;53.432;14.534;2023-05-10T08:02:28;7.00;;;2.03;;
75435;SDS011;64014;53.432;14.534;2023-05-10T08:04:54;4.95;;;3.25;;
75435;SDS011;64014;53.432;14.534;2023-05-10T08:07:21;7.30;;;2.42;;
75435;SDS011;64014;53.432;14.534;2023-05-10T08:09:47;5.85;;;2.60;;
75435;SDS011;64014;53.432;14.534;2023-05-10T08:12:13;8.20;;;2.35;;
75435;SDS011;64014;53.432;14.534;2023-05-10T08:14:39;5.55;;;2.20;;
75435;SDS011;64014;53.432;14.534;2023-05-10T08:17:06;6.55;;;3.50;;
75435;SDS011;64014;53.432;14.534;2023-05-10T08:19:32;6.55;;;1.48;;
75435;SDS011;64014;53.432;14.534;2023-05-10T08:21:58;6.45;;;2.60;;
75435;SDS011;64014;53.432;14.534;2023-05-10T08:24:24;6.35;;;2.20;;
75435;SDS011;64014;53.432;14.534;2023-05-10T08:26:50;5.20;;;1.88;;
75435;SDS011;64014;53.432;14.534;2023-05-10T08:29:17;6.40;;;1.92;;
75435;SDS011;64014;53.432;14.534;2023-05-10T08:31:43;4.60;;;1.70;;
75435;SDS011;64014;53.432;14.534;2023-05-10T08:34:10;9.82;;;3.58;;
75435;SDS011;64014;53.432;14.534;2023-05-10T08:36:36;6.00;;;1.73;;
75435;SDS011;64014;53.432;14.534;2023-05-10T08:39:02;6.75;;;1.88;;
75435;SDS011;64014;53.432;14.534;2023-05-10T08:41:28;7.07;;;2.35;;
75435;SDS011;64014;53.432;14.534;2023-05-10T08:43:55;8.35;;;2.25;;
75435;SDS011;64014;53.432;14.534;2023-05-10T08:46:22;13.35;;;6.75;;
75435;SDS011;64014;53.432;14.534;2023-05-10T08:48:49;6.57;;;3.67;;
75435;SDS011;64014;53.432;14.534;2023-05-10T08:51:22;8.90;;;4.63;;
75435;SDS011;64014;53.432;14.534;2023-05-10T08:53:50;8.35;;;3.25;;
75435;SDS011;64014;53.432;14.534;2023-05-10T08:56:16;5.38;;;1.73;;
75435;SDS011;64014;53.432;14.534;2023-05-10T08:58:42;5.40;;;1.60;;
75435;SDS011;64014;53.432;14.534;2023-05-10T09:01:09;9.77;;;1.92;;
75435;SDS011;64014;53.432;14.534;2023-05-10T09:03:37;7.00;;;2.40;;
75435;SDS011;64014;53.432;14.534;2023-05-10T09:06:04;4.55;;;1.60;;
75435;SDS011;64014;53.432;14.534;2023-05-10T09:08:30;6.70;;;2.58;;
75435;SDS011;64014;53.432;14.534;2023-05-10T09:10:56;7.55;;;2.08;;
75435;SDS011;64014;53.432;14.534;2023-05-10T09:13:23;9.93;;;1.83;;
75435;SDS011;64014;53.432;14.534;2023-05-10T09:15:49;7.60;;;1.83;;
75435;SDS011;64014;53.432;14.534;2023-05-10T09:18:16;8.65;;;2.10;;
75435;SDS011;64014;53.432;14.534;2023-05-10T09:20:42;12.10;;;2.55;;
75435;SDS011;64014;53.432;14.534;2023-05-10T09:23:08;8.73;;;2.13;;
75435;SDS011;64014;53.432;14.534;2023-05-10T09:25:34;7.35;;;3.47;;
75435;SDS011;64014;53.432;14.534;2023-05-10T09:28:02;7.28;;;1.55;;
75435;SDS011;64014;53.432;14.534;2023-05-10T09:30:31;7.00;;;1.63;;
75435;SDS011;64014;53.432;14.534;2023-05-10T09:32:58;5.03;;;3.25;;
75435;SDS011;64014;53.432;14.534;2023-05-10T09:35:25;6.85;;;1.92;;
75435;SDS011;64014;53.432;14.534;2023-05-10T09:37:52;8.93;;;1.75;;
75435;SDS011;64014;53.432;14.534;2023-05-10T09:40:20;7.47;;;1.67;;
75435;SDS011;64014;53.432;14.534;2023-05-10T09:42:56;6.30;;;1.85;;
75435;SDS011;64014;53.432;14.534;2023-05-10T09:45:24;7.07;;;2.03;;
75435;SDS011;64014;53.432;14.534;2023-05-10T09:47:50;9.70;;;3.25;;
75435;SDS011;64014;53.432;14.534;2023-05-10T09:50:16;6.40;;;1.90;;
75435;SDS011;64014;53.432;14.534;2023-05-10T09:52:47;4.35;;;1.48;;
75435;SDS011;64014;53.432;14.534;2023-05-10T09:55:13;6.57;;;1.80;;
75435;SDS011;64014;53.432;14.534;2023-05-10T09:57:40;6.70;;;2.08;;
75435;SDS011;64014;53.432;14.534;2023-05-10T10:00:06;6.95;;;1.27;;
75435;SDS011;64014;53.432;14.534;2023-05-10T10:02:33;3.80;;;1.70;;
75435;SDS011;64014;53.432;14.534;2023-05-10T10:05:03;6.60;;;1.27;;
75435;SDS011;64014;53.432;14.534;2023-05-10T10:07:29;7.28;;;1.60;;
75435;SDS011;64014;53.432;14.534;2023-05-10T10:09:55;6.47;;;2.10;;
75435;SDS011;64014;53.432;14.534;2023-05-10T10:12:21;7.82;;;2.05;;
75435;SDS011;64014;53.432;14.534;2023-05-10T10:14:48;8.68;;;1.48;;
75435;SDS011;64014;53.432;14.534;2023-05-10T10:17:15;4.50;;;1.83;;
75435;SDS011;64014;53.432;14.534;2023-05-10T10:19:42;7.35;;;1.35;;
75435;SDS011;64014;53.432;14.534;2023-05-10T10:22:08;10.68;;;2.10;;
75435;SDS011;64014;53.432;14.534;2023-05-10T10:24:37;9.00;;;3.60;;
75435;SDS011;64014;53.432;14.534;2023-05-10T10:27:14;12.98;;;1.90;;
75435;SDS011;64014;53.432;14.534;2023-05-10T10:29:45;6.15;;;1.98;;
75435;SDS011;64014;53.432;14.534;2023-05-10T10:32:27;7.40;;;1.52;;
75435;SDS011;64014;53.432;14.534;2023-05-10T10:34:56;7.50;;;1.83;;
75435;SDS011;64014;53.432;14.534;2023-05-10T10:37:22;11.40;;;1.50;;
75435;SDS011;64014;53.432;14.534;2023-05-10T10:39:48;13.88;;;1.73;;
75435;SDS011;64014;53.432;14.534;2023-05-10T10:42:17;9.57;;;2.70;;
75435;SDS011;64014;53.432;14.534;2023-05-10T10:45:13;4.22;;;1.45;;
75435;SDS011;64014;53.432;14.534;2023-05-10T10:47:39;6.15;;;1.80;;
75435;SDS011;64014;53.432;14.534;2023-05-10T10:50:08;6.07;;;0.90;;
75435;SDS011;64014;53.432;14.534;2023-05-10T10:57:28;3.55;;;1.40;;
75435;SDS011;64014;53.432;14.534;2023-05-10T11:02:43;4.25;;;1.60;;
75435;SDS011;64014;53.432;14.534;2023-05-10T11:05:38;6.43;;;2.50;;
75435;SDS011;64014;53.432;14.534;2023-05-10T11:08:15;3.63;;;0.93;;
75435;SDS011;64014;53.432;14.534;2023-05-10T11:10:52;7.05;;;2.13;;
75435;SDS011;64014;53.432;14.534;2023-05-10T11:13:26;7.07;;;2.95;;
75435;SDS011;64014;53.432;14.534;2023-05-10T11:15:53;10.98;;;1.58;;
75435;SDS011;64014;53.432;14.534;2023-05-10T11:18:26;5.05;;;3.15;;
75435;SDS011;64014;53.432;14.534;2023-05-10T11:23:31;3.65;;;2.78;;
75435;SDS011;64014;53.432;14.534;2023-05-10T11:25:59;5.72;;;1.33;;
75435;SDS011;64014;53.432;14.534;2023-05-10T11:28:28;5.32;;;0.95;;
75435;SDS011;64014;53.432;14.534;2023-05-10T11:30:54;4.25;;;1.00;;
75435;SDS011;64014;53.432;14.534;2023-05-10T11:33:21;4.63;;;1.27;;
75435;SDS011;64014;53.432;14.534;2023-05-10T11:35:47;3.47;;;2.58;;
75435;SDS011;64014;53.432;14.534;2023-05-10T11:38:13;7.15;;;1.92;;
75435;SDS011;64014;53.432;14.534;2023-05-10T11:40:40;8.75;;;1.90;;
75435;SDS011;64014;53.432;14.534;2023-05-10T11:43:06;8.27;;;1.90;;
75435;SDS011;64014;53.432;14.534;2023-05-10T11:45:35;6.80;;;1.63;;
75435;SDS011;64014;53.432;14.534;2023-05-10T11:48:01;8.05;;;1.75;;
75435;SDS011;64014;53.432;14.534;2023-05-10T11:50:27;8.27;;;2.75;;
75435;SDS011;64014;53.432;14.534;2023-05-10T11:52:54;6.07;;;2.05;;
75435;SDS011;64014;53.432;14.534;2023-05-10T11:55:21;3.65;;;1.10;;
75435;SDS011;64014;53.432;14.534;2023-05-10T11:57:47;3.22;;;0.93;;
75435;SDS011;64014;53.432;14.534;2023-05-10T12:00:13;6.65;;;3.05;;
75435;SDS011;64014;53.432;14.534;2023-05-10T12:02:40;6.85;;;1.60;;
75435;SDS011;64014;53.432;14.534;2023-05-10T12:05:06;5.40;;;1.35;;
75435;SDS011;64014;53.432;14.534;2023-05-10T12:07:33;7.50;;;2.15;;
75435;SDS011;64014;53.432;14.534;2023-05-10T12:10:17;5.72;;;1.30;;
75435;SDS011;64014;53.432;14.534;2023-05-10T12:12:48;6.05;;;2.70;;
75435;SDS011;64014;53.432;14.534;2023-05-10T12:15:18;5.57;;;1.23;;
75435;SDS011;64014;53.432;14.534;2023-05-10T12:17:45;5.70;;;1.13;;
75435;SDS011;64014;53.432;14.534;2023-05-10T12:20:15;4.63;;;1.40;;
75435;SDS011;64014;53.432;14.534;2023-05-10T12:22:45;3.72;;;2.55;;
75435;SDS011;64014;53.432;14.534;2023-05-10T12:25:11;4.15;;;1.95;;
75435;SDS011;64014;53.432;14.534;2023-05-10T12:27:37;9.82;;;3.25;;
75435;SDS011;64014;53.432;14.534;2023-05-10T12:30:04;8.65;;;3.92;;
75435;SDS011;64014;53.432;14.534;2023-05-10T12:32:37;6.13;;;2.45;;
75435;SDS011;64014;53.432;14.534;2023-05-10T12:35:04;5.10;;;1.77;;
75435;SDS011;64014;53.432;14.534;2023-05-10T12:37:30;7.05;;;2.83;;
75435;SDS011;64014;53.432;14.534;2023-05-10T12:40:00;6.70;;;1.63;;
75435;SDS011;64014;53.432;14.534;2023-05-10T12:42:28;4.95;;;1.77;;
75435;SDS011;64014;53.432;14.534;2023-05-10T12:44:55;6.50;;;1.00;;
75435;SDS011;64014;53.432;14.534;2023-05-10T12:47:22;3.67;;;1.52;;
75435;SDS011;64014;53.432;14.534;2023-05-10T12:49:48;4.07;;;1.35;;
75435;SDS011;64014;53.432;14.534;2023-05-10T12:52:14;6.15;;;1.60;;
75435;SDS011;64014;53.432;14.534;2023-05-10T12:54:40;7.03;;;1.42;;
75435;SDS011;64014;53.432;14.534;2023-05-10T12:57:07;4.30;;;1.45;;
75435;SDS011;64014;53.432;14.534;2023-05-10T12:59:33;4.38;;;1.38;;
75435;SDS011;64014;53.432;14.534;2023-05-10T13:01:59;3.88;;;1.85;;
75435;SDS011;64014;53.432;14.534;2023-05-10T13:04:25;7.43;;;1.55;;
75435;SDS011;64014;53.432;14.534;2023-05-10T13:06:51;7.72;;;1.35;;
75435;SDS011;64014;53.432;14.534;2023-05-10T13:09:18;5.97;;;1.92;;
75435;SDS011;64014;53.432;14.534;2023-05-10T13:11:45;6.20;;;1.35;;
75435;SDS011;64014;53.432;14.534;2023-05-10T13:14:13;6.35;;;1.80;;
75435;SDS011;64014;53.432;14.534;2023-05-10T13:16:39;6.22;;;1.80;;
75435;SDS011;64014;53.432;14.534;2023-05-10T13:19:06;5.22;;;1.48;;
75435;SDS011;64014;53.432;14.534;2023-05-10T13:21:32;8.15;;;1.67;;
75435;SDS011;64014;53.432;14.534;2023-05-10T13:23:58;8.02;;;1.92;;
75435;SDS011;64014;53.432;14.534;2023-05-10T13:26:25;4.70;;;1.27;;
75435;SDS011;64014;53.432;14.534;2023-05-10T13:28:51;6.05;;;1.65;;
75435;SDS011;64014;53.432;14.534;2023-05-10T13:31:20;4.43;;;1.92;;
75435;SDS011;64014;53.432;14.534;2023-05-10T13:33:47;5.55;;;1.50;;
75435;SDS011;64014;53.432;14.534;2023-05-10T13:36:13;5.05;;;1.38;;
75435;SDS011;64014;53.432;14.534;2023-05-10T13:38:39;4.68;;;1.73;;
75435;SDS011;64014;53.432;14.534;2023-05-10T13:41:06;8.85;;;1.25;;
75435;SDS011;64014;53.432;14.534;2023-05-10T13:43:32;3.00;;;0.90;;
75435;SDS011;64014;53.432;14.534;2023-05-10T13:45:58;7.65;;;1.52;;
75435;SDS011;64014;53.432;14.534;2023-05-10T13:48:24;6.75;;;2.85;;
75435;SDS011;64014;53.432;14.534;2023-05-10T13:50:51;6.80;;;2.85;;
75435;SDS011;64014;53.432;14.534;2023-05-10T13:53:17;3.67;;;1.48;;
75435;SDS011;64014;53.432;14.534;2023-05-10T13:55:43;9.07;;;2.05;;
75435;SDS011;64014;53.432;14.534;2023-05-10T13:58:09;6.15;;;2.25;;
75435;SDS011;64014;53.432;14.534;2023-05-10T14:00:35;5.35;;;1.45;;
75435;SDS011;64014;53.432;14.534;2023-05-10T14:03:02;10.65;;;1.67;;
75435;SDS011;64014;53.432;14.534;2023-05-10T14:05:29;5.60;;;1.35;;
75435;SDS011;64014;53.432;14.534;2023-05-10T14:07:56;4.40;;;1.23;;
75435;SDS011;64014;53.432;14.534;2023-05-10T14:10:22;4.75;;;1.60;;
75435;SDS011;64014;53.432;14.534;2023-05-10T14:12:49;5.55;;;1.27;;
75435;SDS011;64014;53.432;14.534;2023-05-10T14:15:15;7.22;;;1.38;;
75435;SDS011;64014;53.432;14.534;2023-05-10T14:17:41;3.08;;;1.55;;
75435;SDS011;64014;53.432;14.534;2023-05-10T14:20:08;4.18;;;1.23;;
75435;SDS011;64014;53.432;14.534;2023-05-10T14:22:34;4.43;;;1.50;;
75435;SDS011;64014;53.432;14.534;2023-05-10T14:25:00;5.45;;;1.38;;
75435;SDS011;64014;53.432;14.534;2023-05-10T14:27:27;5.30;;;1.70;;
75435;SDS011;64014;53.432;14.534;2023-05-10T14:29:53;16.30;;;1.80;;
75435;SDS011;64014;53.432;14.534;2023-05-10T14:32:19;5.75;;;1.52;;
75435;SDS011;64014;53.432;14.534;2023-05-10T14:34:46;6.53;;;1.80;;
75435;SDS011;64014;53.432;14.534;2023-05-10T14:37:13;5.38;;;1.50;;
75435;SDS011;64014;53.432;14.534;2023-05-10T14:39:40;4.03;;;1.35;;
75435;SDS011;64014;53.432;14.534;2023-05-10T14:42:07;5.43;;;1.13;;
75435;SDS011;64014;53.432;14.534;2023-05-10T14:44:34;5.00;;;1.77;;
75435;SDS011;64014;53.432;14.534;2023-05-10T14:47:00;3.95;;;1.75;;
75435;SDS011;64014;53.432;14.534;2023-05-10T14:49:26;4.30;;;1.63;;
75435;SDS011;64014;53.432;14.534;2023-05-10T14:51:52;3.83;;;1.30;;
75435;SDS011;64014;53.432;14.534;2023-05-10T14:54:19;5.30;;;1.65;;
75435;SDS011;64014;53.432;14.534;2023-05-10T14:56:45;5.03;;;1.30;;
75435;SDS011;64014;53.432;14.534;2023-05-10T14:59:13;3.17;;;1.75;;
75435;SDS011;64014;53.432;14.534;2023-05-10T15:01:39;3.75;;;1.33;;